CheckWX is a tool to help pilots better visualize weather data.  It is not intended as a substitute for an official pre-flight weather briefing.

08:44:05 UTC

KMNZ METAR
Hamilton Municipal Airport
Hamilton, Texas, USA
Current

9 mins ago

KMNZ 220835Z AUTO 08003KT 1/4SM FG OVC002 08/08 A2995 RMK AO2 T00820082
Observed
Feb-22 @ 08:35 UTC
Wind
  • 080° at 3 KTS
Visibility
1/4 SM
Flight Rules
LIFR
Conditions
Fog
Cloud Levels
  • Overcast at 200' AGL
Temperature
C / 46°F
Dewpoint
C / 46°F
Humidity
100%
Altimeter
29.95" Hg
Pressure
1014.22 hPa
Previous

29 mins ago

KMNZ 220815Z AUTO 10007KT 1/2SM FG OVC002 08/08 A2997 RMK AO2 T00820082
Observed
Feb-22 @ 08:15 UTC
Wind
  • 100° at 7 KTS
Visibility
1/2 SM
Flight Rules
LIFR
Conditions
Fog
Cloud Levels
  • Overcast at 200' AGL
Temperature
C / 46°F
Dewpoint
C / 46°F
Humidity
100%
Altimeter
29.97" Hg
Pressure
1014.92 hPa
Previous

49 mins ago

KMNZ 220755Z AUTO 12006KT 3/4SM BR OVC002 08/08 A2998 RMK AO2 T00810081
Observed
Feb-22 @ 07:55 UTC
Wind
  • 120° at 6 KTS
Visibility
3/4 SM
Flight Rules
LIFR
Conditions
Mist
Cloud Levels
  • Overcast at 200' AGL
Temperature
C / 46°F
Dewpoint
C / 46°F
Humidity
100%
Altimeter
29.98" Hg
Pressure
1015.22 hPa